Time;durP1;ratioP1;P1;durP2;ratioP2;P2;SDS_P1;SDS_P2;PMS_P1;PMS_P2;Temp;Humidity;BMP_temperature;BMP_pressure;BME280_temperature;BME280_humidity;BME280_pressure;Samples;Min_cycle;Max_cycle;Signal;HPM_P1;HPM_P2
2021/08/27 00:01:41;;;;;;;17.13;6.20;;;;;;;;;;4958432;28;20042;-75
2021/08/27 00:04:06;;;;;;;14.20;6.68;;;;;;;;;;4955838;28;20031;-76
2021/08/27 00:06:32;;;;;;;15.10;6.80;;;;;;;;;;4964693;28;20034;-75
2021/08/27 00:08:58;;;;;;;15.15;6.28;;;;;;;;;;4961704;28;20023;-74
2021/08/27 00:11:24;;;;;;;11.73;6.57;;;;;;;;;;4961548;28;20069;-75
2021/08/27 00:13:50;;;;;;;19.30;6.72;;;;;;;;;;4964435;28;20039;-75
2021/08/27 00:16:16;;;;;;;15.45;7.35;;;;;;;;;;4960046;28;20035;-75
2021/08/27 00:18:41;;;;;;;10.95;5.35;;;;;;;;;;4959667;28;20034;-75
2021/08/27 00:21:07;;;;;;;13.77;5.80;;;;;;;;;;4962260;28;20022;-75
2021/08/27 00:23:32;;;;;;;11.98;5.07;;;;;;;;;;4958555;28;20042;-75
2021/08/27 00:25:58;;;;;;;16.45;5.88;;;;;;;;;;4959404;28;20050;-74
2021/08/27 00:28:23;;;;;;;15.10;6.35;;;;;;;;;;4947345;28;20039;-75
2021/08/27 00:30:49;;;;;;;13.55;5.43;;;;;;;;;;4966174;28;20496;-76
2021/08/27 00:33:14;;;;;;;14.60;6.05;;;;;;;;;;4965414;28;20031;-76
2021/08/27 00:35:40;;;;;;;16.52;5.55;;;;;;;;;;4960241;28;20065;-76
2021/08/27 00:38:06;;;;;;;15.88;5.13;;;;;;;;;;4965455;28;20084;-74
2021/08/27 00:40:32;;;;;;;12.52;5.35;;;;;;;;;;4952073;28;20061;-75
2021/08/27 00:42:57;;;;;;;15.32;5.47;;;;;;;;;;4966877;28;20496;-74
2021/08/27 00:45:23;;;;;;;10.02;5.38;;;;;;;;;;4965959;28;20039;-75
2021/08/27 00:47:49;;;;;;;12.63;5.90;;;;;;;;;;4957847;28;20027;-74
2021/08/27 00:50:15;;;;;;;11.43;5.35;;;;;;;;;;4964310;28;20113;-75
2021/08/27 00:52:41;;;;;;;11.73;5.35;;;;;;;;;;4972208;28;20026;-75
2021/08/27 00:55:08;;;;;;;13.48;5.60;;;;;;;;;;4959595;28;20089;-75
2021/08/27 00:57:35;;;;;;;15.77;6.38;;;;;;;;;;4966167;28;20105;-76
2021/08/27 01:00:01;;;;;;;15.52;5.93;;;;;;;;;;4961117;28;20050;-74
2021/08/27 01:02:27;;;;;;;16.75;5.75;;;;;;;;;;4959799;28;20045;-77
2021/08/27 01:04:54;;;;;;;9.80;4.82;;;;;;;;;;4967588;28;20097;-74
2021/08/27 01:07:24;;;;;;;13.75;5.80;;;;;;;;;;4967153;28;20086;-74
2021/08/27 01:10:03;;;;;;;13.80;5.80;;;;;;;;;;4969787;28;20027;-74
2021/08/27 01:13:11;;;;;;;8.95;5.40;;;;;;;;;;4965378;28;20030;-74
2021/08/27 01:16:00;;;;;;;14.60;5.50;;;;;;;;;;4945082;28;20074;-74
2021/08/27 01:19:01;;;;;;;17.17;6.18;;;;;;;;;;4965583;28;20632;-74
2021/08/27 01:22:00;;;;;;;13.43;5.28;;;;;;;;;;4959711;28;20121;-74
2021/08/27 01:24:29;;;;;;;11.98;5.55;;;;;;;;;;4967142;28;20043;-74
2021/08/27 01:26:58;;;;;;;24.65;7.22;;;;;;;;;;4959872;28;20031;-74
2021/08/27 01:29:39;;;;;;;13.05;6.05;;;;;;;;;;4961032;28;20031;-74
2021/08/27 01:32:10;;;;;;;16.15;5.93;;;;;;;;;;4965144;28;20173;-74
2021/08/27 01:34:38;;;;;;;12.60;5.90;;;;;;;;;;4969194;28;20035;-74
2021/08/27 01:37:11;;;;;;;13.65;5.82;;;;;;;;;;4958146;28;20034;-74
2021/08/27 01:39:44;;;;;;;15.40;5.68;;;;;;;;;;4958942;28;20038;-76
2021/08/27 01:42:13;;;;;;;17.52;6.80;;;;;;;;;;4959757;28;20484;-75
2021/08/27 01:44:41;;;;;;;13.32;5.95;;;;;;;;;;4967365;28;20501;-74
2021/08/27 01:47:08;;;;;;;14.18;6.68;;;;;;;;;;4961851;28;20034;-74
2021/08/27 01:49:34;;;;;;;14.50;7.00;;;;;;;;;;4954858;28;20065;-74
2021/08/27 01:52:03;;;;;;;13.45;5.72;;;;;;;;;;4960776;28;20070;-74
2021/08/27 01:54:30;;;;;;;13.63;6.53;;;;;;;;;;4959234;28;20042;-74
2021/08/27 01:56:56;;;;;;;16.50;6.28;;;;;;;;;;4973943;28;20031;-74
2021/08/27 01:59:24;;;;;;;16.10;6.63;;;;;;;;;;4983244;28;20122;-74
2021/08/27 02:01:49;;;;;;;15.43;6.35;;;;;;;;;;4968693;28;20035;-74
2021/08/27 02:04:17;;;;;;;14.55;6.30;;;;;;;;;;4969406;28;20444;-75
2021/08/27 02:06:43;;;;;;;15.88;7.10;;;;;;;;;;4966952;28;20035;-75
2021/08/27 02:09:11;;;;;;;18.40;6.03;;;;;;;;;;4963994;28;20031;-75
2021/08/27 02:11:37;;;;;;;15.45;6.82;;;;;;;;;;4971580;28;20061;-74
2021/08/27 02:14:03;;;;;;;14.88;6.13;;;;;;;;;;4963509;28;20054;-74
2021/08/27 02:16:29;;;;;;;14.23;6.68;;;;;;;;;;4960774;28;20031;-75
2021/08/27 02:18:56;;;;;;;16.23;6.47;;;;;;;;;;4966443;28;20027;-74
2021/08/27 02:21:23;;;;;;;14.15;6.43;;;;;;;;;;4958313;28;20105;-74
2021/08/27 02:23:50;;;;;;;16.40;6.80;;;;;;;;;;4957685;28;20035;-74
2021/08/27 02:26:17;;;;;;;11.73;5.50;;;;;;;;;;4973188;28;20043;-74
2021/08/27 02:28:45;;;;;;;14.73;6.20;;;;;;;;;;4972489;28;20684;-75
2021/08/27 02:31:12;;;;;;;14.77;6.75;;;;;;;;;;4980572;28;20267;-74
2021/08/27 02:33:45;;;;;;;14.43;6.72;;;;;;;;;;4954977;28;20031;-74
2021/08/27 02:36:14;;;;;;;14.65;6.65;;;;;;;;;;4968740;28;20034;-76
2021/08/27 02:38:40;;;;;;;14.70;6.00;;;;;;;;;;4962252;28;20030;-73
2021/08/27 02:41:06;;;;;;;12.93;6.28;;;;;;;;;;4954540;28;20543;-74
2021/08/27 02:43:31;;;;;;;11.15;5.13;;;;;;;;;;4958615;28;20081;-74
2021/08/27 02:45:57;;;;;;;10.43;5.07;;;;;;;;;;4957018;28;20034;-74
2021/08/27 02:48:22;;;;;;;13.23;5.72;;;;;;;;;;4956947;28;20825;-74
2021/08/27 02:50:59;;;;;;;11.63;5.47;;;;;;;;;;4942046;28;20034;-74
2021/08/27 02:53:29;;;;;;;14.10;5.80;;;;;;;;;;4957829;28;20390;-74
2021/08/27 02:56:08;;;;;;;11.90;6.13;;;;;;;;;;4955434;28;20027;-74
2021/08/27 02:58:35;;;;;;;14.23;5.95;;;;;;;;;;4956976;28;20113;-74
2021/08/27 03:01:18;;;;;;;14.85;5.60;;;;;;;;;;4960023;28;20027;-76
2021/08/27 03:04:06;;;;;;;14.48;5.80;;;;;;;;;;4967804;28;20030;-74
2021/08/27 03:06:39;;;;;;;10.93;5.30;;;;;;;;;;4968318;28;20033;-74
2021/08/27 03:09:08;;;;;;;14.43;5.82;;;;;;;;;;4975112;28;20169;-74
2021/08/27 03:11:58;;;;;;;12.88;5.72;;;;;;;;;;4975522;28;20034;-74
2021/08/27 03:14:35;;;;;;;15.80;5.47;;;;;;;;;;4966136;28;20070;-74
2021/08/27 03:17:03;;;;;;;13.80;6.00;;;;;;;;;;4969594;28;20030;-74
2021/08/27 03:19:40;;;;;;;11.57;6.10;;;;;;;;;;4962710;28;20031;-74
2021/08/27 03:22:15;;;;;;;11.30;4.93;;;;;;;;;;4967184;28;20101;-74
2021/08/27 03:24:48;;;;;;;10.80;5.28;;;;;;;;;;4966712;28;20061;-74
2021/08/27 03:27:20;;;;;;;15.65;5.80;;;;;;;;;;4961515;28;20102;-74
2021/08/27 03:29:54;;;;;;;16.88;6.03;;;;;;;;;;4970411;28;20543;-74
2021/08/27 03:32:21;;;;;;;13.45;5.43;;;;;;;;;;4972537;28;20041;-75
2021/08/27 03:34:48;;;;;;;12.88;5.45;;;;;;;;;;4965801;28;20023;-75
2021/08/27 03:37:13;;;;;;;11.10;5.65;;;;;;;;;;4967889;28;20027;-74
2021/08/27 03:39:41;;;;;;;13.65;6.10;;;;;;;;;;4974704;28;20034;-74
2021/08/27 03:42:07;;;;;;;13.15;5.63;;;;;;;;;;4972693;28;20038;-74
2021/08/27 03:44:34;;;;;;;19.50;6.50;;;;;;;;;;4967124;28;20089;-76
2021/08/27 03:47:01;;;;;;;12.52;5.60;;;;;;;;;;4971108;28;20034;-74
2021/08/27 03:49:27;;;;;;;14.40;5.53;;;;;;;;;;4967961;28;20504;-76
2021/08/27 03:51:54;;;;;;;20.35;6.95;;;;;;;;;;4969735;28;20089;-76
2021/08/27 03:54:20;;;;;;;12.18;5.53;;;;;;;;;;4968360;28;20085;-75
2021/08/27 03:56:47;;;;;;;13.85;5.95;;;;;;;;;;4970603;28;20034;-76
2021/08/27 03:59:13;;;;;;;15.93;5.57;;;;;;;;;;4972456;28;20034;-76
2021/08/27 04:01:39;;;;;;;12.75;5.63;;;;;;;;;;4951584;28;20909;-76
2021/08/27 04:04:06;;;;;;;16.20;6.28;;;;;;;;;;4970479;28;20041;-77
2021/08/27 04:06:32;;;;;;;16.50;6.85;;;;;;;;;;4972000;28;20041;-76
2021/08/27 04:08:57;;;;;;;19.13;7.60;;;;;;;;;;4962305;28;20031;-77
2021/08/27 04:11:23;;;;;;;18.92;7.65;;;;;;;;;;4970485;28;20441;-75
2021/08/27 04:13:48;;;;;;;16.17;8.52;;;;;;;;;;4965774;28;20432;-77
2021/08/27 04:16:14;;;;;;;20.45;7.95;;;;;;;;;;4966203;28;20034;-77
2021/08/27 04:18:39;;;;;;;20.30;9.40;;;;;;;;;;4969538;28;20035;-77
2021/08/27 04:21:05;;;;;;;20.00;8.50;;;;;;;;;;4961990;28;20065;-76
2021/08/27 04:23:30;;;;;;;19.05;8.30;;;;;;;;;;4973399;28;20645;-77
2021/08/27 04:25:56;;;;;;;58.97;9.30;;;;;;;;;;4974447;28;20081;-77
2021/08/27 04:28:21;;;;;;;21.73;9.35;;;;;;;;;;4973681;28;20554;-76
2021/08/27 04:30:47;;;;;;;18.05;9.70;;;;;;;;;;4960527;28;20042;-77
2021/08/27 04:33:12;;;;;;;35.45;9.90;;;;;;;;;;4949457;28;20038;-76
2021/08/27 04:35:38;;;;;;;34.42;10.02;;;;;;;;;;4963296;28;20061;-77
2021/08/27 04:38:04;;;;;;;28.88;9.30;;;;;;;;;;4963064;28;20162;-76
2021/08/27 04:40:29;;;;;;;27.52;9.50;;;;;;;;;;4956350;28;20030;-76
2021/08/27 04:42:55;;;;;;;23.52;10.63;;;;;;;;;;4975181;28;20365;-74
2021/08/27 04:45:20;;;;;;;27.77;10.80;;;;;;;;;;4971827;28;20039;-77
2021/08/27 04:47:46;;;;;;;28.85;11.55;;;;;;;;;;4982133;28;20069;-77
2021/08/27 04:50:12;;;;;;;25.40;11.30;;;;;;;;;;4966533;28;20163;-76
2021/08/27 04:52:38;;;;;;;35.70;12.80;;;;;;;;;;4969939;28;20515;-76
2021/08/27 04:55:05;;;;;;;26.38;12.30;;;;;;;;;;4965728;28;20034;-77
2021/08/27 04:57:30;;;;;;;31.35;13.52;;;;;;;;;;4962538;28;20041;-77
2021/08/27 04:59:56;;;;;;;31.20;13.02;;;;;;;;;;4967100;28;20043;-77
2021/08/27 05:02:21;;;;;;;34.42;12.82;;;;;;;;;;4959882;28;20058;-78
2021/08/27 05:04:47;;;;;;;34.70;12.38;;;;;;;;;;4963242;28;20039;-77
2021/08/27 05:07:12;;;;;;;33.38;13.88;;;;;;;;;;4962176;28;20034;-76
2021/08/27 05:09:38;;;;;;;30.70;12.82;;;;;;;;;;4962411;28;20489;-76
2021/08/27 05:12:04;;;;;;;31.10;13.55;;;;;;;;;;4962702;28;20041;-76
2021/08/27 05:14:29;;;;;;;33.25;12.80;;;;;;;;;;4948880;28;20031;-76
2021/08/27 05:16:55;;;;;;;33.85;12.98;;;;;;;;;;4961646;28;20054;-77
2021/08/27 05:19:20;;;;;;;35.78;14.07;;;;;;;;;;4962011;28;20997;-77
2021/08/27 05:21:46;;;;;;;24.63;12.27;;;;;;;;;;4963974;28;20436;-76
2021/08/27 05:24:11;;;;;;;30.33;12.82;;;;;;;;;;4960478;28;20097;-76
2021/08/27 05:26:37;;;;;;;32.00;13.45;;;;;;;;;;4961989;28;20491;-75
2021/08/27 05:29:03;;;;;;;29.48;12.20;;;;;;;;;;4959840;28;20500;-76
2021/08/27 05:31:29;;;;;;;30.48;13.57;;;;;;;;;;4963376;28;20058;-76
2021/08/27 05:33:55;;;;;;;31.40;12.30;;;;;;;;;;4965393;28;20166;-76
2021/08/27 05:36:21;;;;;;;26.77;12.05;;;;;;;;;;4965036;28;20519;-76
2021/08/27 05:38:47;;;;;;;23.60;11.43;;;;;;;;;;4971170;28;20034;-76
2021/08/27 05:41:13;;;;;;;24.23;12.10;;;;;;;;;;4969968;28;20247;-76
2021/08/27 05:43:39;;;;;;;21.40;11.77;;;;;;;;;;4965420;28;20753;-76
2021/08/27 05:46:05;;;;;;;26.52;11.80;;;;;;;;;;4982034;28;20038;-76
2021/08/27 05:48:30;;;;;;;23.17;11.85;;;;;;;;;;4969876;28;20030;-76
2021/08/27 05:50:55;;;;;;;25.52;11.80;;;;;;;;;;4963557;28;20034;-76
2021/08/27 05:53:21;;;;;;;28.90;12.38;;;;;;;;;;4973167;28;20034;-76
2021/08/27 05:55:46;;;;;;;29.55;13.07;;;;;;;;;;4976421;28;20048;-76
2021/08/27 05:58:12;;;;;;;26.90;12.82;;;;;;;;;;4963624;28;20035;-76
2021/08/27 06:00:37;;;;;;;26.48;11.77;;;;;;;;;;4965656;28;20512;-76
2021/08/27 06:03:03;;;;;;;28.45;12.82;;;;;;;;;;4967571;28;20072;-76
2021/08/27 06:05:28;;;;;;;27.75;12.52;;;;;;;;;;4968484;28;20492;-76
2021/08/27 06:07:54;;;;;;;35.05;13.25;;;;;;;;;;4954430;28;20038;-76
2021/08/27 06:10:20;;;;;;;27.25;13.00;;;;;;;;;;4967732;28;20026;-76
2021/08/27 06:12:45;;;;;;;31.80;12.85;;;;;;;;;;4975982;28;20083;-76
2021/08/27 06:15:12;;;;;;;22.88;11.55;;;;;;;;;;4965452;28;20093;-76
2021/08/27 06:17:38;;;;;;;29.30;11.82;;;;;;;;;;4984725;28;20038;-76
2021/08/27 06:20:05;;;;;;;30.20;11.57;;;;;;;;;;4969328;28;20030;-76
2021/08/27 06:22:30;;;;;;;30.70;11.50;;;;;;;;;;4964219;28;20034;-77
2021/08/27 06:24:56;;;;;;;26.27;10.70;;;;;;;;;;4986595;28;20053;-76
2021/08/27 06:27:21;;;;;;;21.52;11.00;;;;;;;;;;4962660;28;20070;-77
2021/08/27 06:29:47;;;;;;;23.13;11.05;;;;;;;;;;4971424;28;20554;-77
2021/08/27 06:32:12;;;;;;;28.30;11.30;;;;;;;;;;4964791;28;20086;-75
2021/08/27 06:34:38;;;;;;;24.45;10.95;;;;;;;;;;4969998;28;20031;-76
2021/08/27 06:37:04;;;;;;;25.05;10.85;;;;;;;;;;4962902;28;20547;-76
2021/08/27 06:39:29;;;;;;;26.05;11.30;;;;;;;;;;4966274;28;20467;-76
2021/08/27 06:41:55;;;;;;;22.60;11.27;;;;;;;;;;4973259;28;20395;-76
2021/08/27 06:44:20;;;;;;;26.52;10.85;;;;;;;;;;4964099;28;20124;-76
2021/08/27 06:46:46;;;;;;;24.70;11.68;;;;;;;;;;4964529;28;20031;-76
2021/08/27 06:49:12;;;;;;;25.27;11.18;;;;;;;;;;4966169;28;20513;-76
2021/08/27 06:51:42;;;;;;;26.92;11.38;;;;;;;;;;4971931;28;20658;-76
2021/08/27 06:54:08;;;;;;;25.63;11.98;;;;;;;;;;4965583;28;20041;-76
2021/08/27 06:56:34;;;;;;;22.17;11.23;;;;;;;;;;4965550;28;20037;-76
2021/08/27 06:58:59;;;;;;;29.48;11.63;;;;;;;;;;4943845;28;20027;-76
2021/08/27 07:01:26;;;;;;;26.63;11.32;;;;;;;;;;4961447;28;20054;-76
2021/08/27 07:03:52;;;;;;;23.08;10.60;;;;;;;;;;4963204;28;20138;-76
2021/08/27 07:06:17;;;;;;;25.35;11.75;;;;;;;;;;4967793;28;20471;-76
2021/08/27 07:08:43;;;;;;;23.10;10.23;;;;;;;;;;4963069;28;20035;-76
2021/08/27 07:11:08;;;;;;;26.67;11.48;;;;;;;;;;4964833;28;20046;-76
2021/08/27 07:13:34;;;;;;;24.95;10.80;;;;;;;;;;4967779;28;20098;-76
2021/08/27 07:15:59;;;;;;;27.27;10.07;;;;;;;;;;4961906;28;20110;-76
2021/08/27 07:18:26;;;;;;;22.70;10.55;;;;;;;;;;4957580;28;20094;-76
2021/08/27 07:20:53;;;;;;;27.13;12.02;;;;;;;;;;4957541;28;20031;-76
2021/08/27 07:23:19;;;;;;;23.88;10.20;;;;;;;;;;4959318;28;20031;-76
2021/08/27 07:25:44;;;;;;;20.17;9.05;;;;;;;;;;4938861;28;20073;-76
2021/08/27 07:28:10;;;;;;;26.45;9.38;;;;;;;;;;4959370;28;20038;-76
2021/08/27 07:30:36;;;;;;;22.00;10.38;;;;;;;;;;4935034;28;20048;-76
2021/08/27 07:33:03;;;;;;;38.58;11.35;;;;;;;;;;4959293;28;20096;-77
2021/08/27 07:35:28;;;;;;;18.90;8.88;;;;;;;;;;4962912;28;20203;-76
2021/08/27 07:37:54;;;;;;;13.80;7.35;;;;;;;;;;4957718;28;20581;-76
2021/08/27 07:40:20;;;;;;;21.13;7.45;;;;;;;;;;4961024;28;20061;-77
2021/08/27 07:42:46;;;;;;;34.50;9.23;;;;;;;;;;4960970;28;20046;-76
2021/08/27 07:45:13;;;;;;;18.13;6.72;;;;;;;;;;4977748;28;20039;-76
2021/08/27 07:47:39;;;;;;;18.55;6.45;;;;;;;;;;4961916;28;20035;-76
2021/08/27 07:50:06;;;;;;;15.27;6.47;;;;;;;;;;4961120;28;20097;-76
2021/08/27 07:52:32;;;;;;;18.98;6.63;;;;;;;;;;4956930;28;20039;-76
2021/08/27 07:54:57;;;;;;;14.65;6.72;;;;;;;;;;4959661;28;20023;-77
2021/08/27 07:57:23;;;;;;;18.48;7.00;;;;;;;;;;4947008;28;20505;-76
2021/08/27 07:59:48;;;;;;;17.38;6.63;;;;;;;;;;4959325;28;20038;-77
2021/08/27 08:02:14;;;;;;;13.25;6.18;;;;;;;;;;4960026;28;20121;-76
2021/08/27 08:04:41;;;;;;;15.30;6.25;;;;;;;;;;4962655;28;20045;-76
2021/08/27 08:07:07;;;;;;;15.80;6.30;;;;;;;;;;4967723;28;20100;-76
2021/08/27 08:09:32;;;;;;;17.13;6.30;;;;;;;;;;4967907;28;20030;-76
2021/08/27 08:11:58;;;;;;;11.27;5.78;;;;;;;;;;4963194;28;20153;-76
2021/08/27 08:14:23;;;;;;;11.57;5.35;;;;;;;;;;4960758;28;20046;-76
2021/08/27 08:16:49;;;;;;;14.77;5.70;;;;;;;;;;4964216;28;20035;-77
2021/08/27 08:19:16;;;;;;;12.77;5.90;;;;;;;;;;4959600;28;20031;-76
2021/08/27 08:21:41;;;;;;;15.00;6.38;;;;;;;;;;4959769;28;20050;-76
2021/08/27 08:24:07;;;;;;;13.85;5.75;;;;;;;;;;4961797;28;20038;-76
2021/08/27 08:26:33;;;;;;;12.27;5.75;;;;;;;;;;4982854;28;20042;-76
2021/08/27 08:28:59;;;;;;;15.68;5.75;;;;;;;;;;4965158;28;20034;-76
2021/08/27 08:31:25;;;;;;;10.15;5.80;;;;;;;;;;4958548;28;20768;-76
2021/08/27 08:33:53;;;;;;;10.98;5.28;;;;;;;;;;4964838;28;20049;-78
2021/08/27 08:36:19;;;;;;;18.25;5.60;;;;;;;;;;4964603;28;20045;-76
2021/08/27 08:38:46;;;;;;;11.50;5.90;;;;;;;;;;4961260;28;20027;-76
2021/08/27 08:41:14;;;;;;;16.15;6.90;;;;;;;;;;4963463;28;20035;-76
2021/08/27 08:43:40;;;;;;;18.02;6.90;;;;;;;;;;4961178;28;20110;-77
2021/08/27 08:46:05;;;;;;;13.77;6.13;;;;;;;;;;4964962;28;20560;-76
2021/08/27 08:48:33;;;;;;;19.60;6.57;;;;;;;;;;4965617;28;20046;-77
2021/08/27 08:51:00;;;;;;;19.13;5.40;;;;;;;;;;4962280;28;20117;-77
2021/08/27 08:53:26;;;;;;;13.32;6.32;;;;;;;;;;4965093;28;20042;-76
2021/08/27 08:55:52;;;;;;;16.25;6.07;;;;;;;;;;4964027;28;20554;-76
2021/08/27 08:58:19;;;;;;;12.63;5.22;;;;;;;;;;4963711;28;20030;-76
2021/08/27 09:00:45;;;;;;;9.60;5.15;;;;;;;;;;4965607;28;20423;-77
2021/08/27 09:03:10;;;;;;;15.05;6.68;;;;;;;;;;4984185;28;20397;-76
2021/08/27 09:05:42;;;;;;;14.93;5.68;;;;;;;;;;4962391;28;20043;-76
2021/08/27 09:08:08;;;;;;;16.55;5.95;;;;;;;;;;4981286;28;20039;-76
2021/08/27 09:10:41;;;;;;;16.45;6.35;;;;;;;;;;4969165;28;20433;-76
2021/08/27 09:13:07;;;;;;;16.45;5.68;;;;;;;;;;4965900;28;20034;-75
2021/08/27 09:15:32;;;;;;;11.40;5.60;;;;;;;;;;4964715;28;20042;-77
2021/08/27 09:18:04;;;;;;;17.00;6.72;;;;;;;;;;4968473;28;20023;-78
2021/08/27 09:20:30;;;;;;;12.82;5.53;;;;;;;;;;4963967;28;20034;-76
2021/08/27 09:23:02;;;;;;;13.82;5.35;;;;;;;;;;4961503;28;20034;-78
2021/08/27 09:25:33;;;;;;;16.25;6.55;;;;;;;;;;4967437;28;20047;-76
2021/08/27 09:28:09;;;;;;;13.00;5.78;;;;;;;;;;4973251;28;20045;-76
2021/08/27 09:30:54;;;;;;;11.75;5.60;;;;;;;;;;4966754;28;20022;-76
2021/08/27 09:33:23;;;;;;;15.48;5.50;;;;;;;;;;4970636;28;20034;-77
2021/08/27 09:36:03;;;;;;;15.57;6.10;;;;;;;;;;4959676;28;20446;-76
2021/08/27 09:38:31;;;;;;;15.27;5.60;;;;;;;;;;4964259;28;20102;-76
2021/08/27 09:41:08;;;;;;;15.07;5.32;;;;;;;;;;4969012;28;20571;-77
2021/08/27 09:44:00;;;;;;;21.58;6.10;;;;;;;;;;4965535;28;20143;-76
2021/08/27 09:46:42;;;;;;;19.45;5.03;;;;;;;;;;4965951;28;20039;-77
2021/08/27 09:49:30;;;;;;;14.57;5.80;;;;;;;;;;4963770;28;20062;-77
2021/08/27 09:52:00;;;;;;;9.30;5.20;;;;;;;;;;4967706;28;20052;-76
2021/08/27 09:54:27;;;;;;;13.05;5.60;;;;;;;;;;4967968;28;20041;-76
2021/08/27 09:56:55;;;;;;;13.00;5.47;;;;;;;;;;4968584;28;20117;-75
2021/08/27 09:59:41;;;;;;;21.70;5.70;;;;;;;;;;4964206;28;20027;-74
2021/08/27 10:02:09;;;;;;;24.58;5.40;;;;;;;;;;4967240;28;20046;-75
2021/08/27 10:04:47;;;;;;;10.38;4.50;;;;;;;;;;4957526;28;20436;-74
2021/08/27 10:07:24;;;;;;;13.05;5.55;;;;;;;;;;4960871;28;20027;-74
2021/08/27 10:09:49;;;;;;;11.07;5.38;;;;;;;;;;4958033;28;20114;-74
2021/08/27 10:12:15;;;;;;;15.02;5.30;;;;;;;;;;4955758;28;20122;-75
2021/08/27 10:14:41;;;;;;;13.63;5.22;;;;;;;;;;4960353;28;20066;-74
2021/08/27 10:17:07;;;;;;;13.15;5.43;;;;;;;;;;4959352;28;20098;-74
2021/08/27 10:19:32;;;;;;;15.73;4.68;;;;;;;;;;4960054;28;20057;-76
2021/08/27 10:21:58;;;;;;;11.75;4.47;;;;;;;;;;4965166;28;20047;-74
2021/08/27 10:24:24;;;;;;;13.52;5.13;;;;;;;;;;4966233;28;20508;-74
2021/08/27 10:26:50;;;;;;;12.20;4.78;;;;;;;;;;4963651;28;20572;-73
2021/08/27 10:29:15;;;;;;;11.63;5.10;;;;;;;;;;4960085;28;20022;-75
2021/08/27 10:31:47;;;;;;;18.48;5.30;;;;;;;;;;4963432;28;20039;-75
2021/08/27 10:34:17;;;;;;;14.48;5.25;;;;;;;;;;4966253;28;20047;-75
2021/08/27 10:36:44;;;;;;;12.32;4.55;;;;;;;;;;4966288;28;20045;-75
2021/08/27 10:39:10;;;;;;;12.82;4.82;;;;;;;;;;4967866;28;20596;-75
2021/08/27 10:41:39;;;;;;;13.68;5.05;;;;;;;;;;4967419;28;20034;-75
2021/08/27 10:44:12;;;;;;;13.18;4.50;;;;;;;;;;4974870;28;20026;-75
2021/08/27 10:46:43;;;;;;;12.63;5.13;;;;;;;;;;4971300;28;20046;-76
2021/08/27 10:49:12;;;;;;;14.02;4.47;;;;;;;;;;4968236;28;20062;-75
2021/08/27 10:51:40;;;;;;;12.68;4.70;;;;;;;;;;4971416;28;20030;-76
2021/08/27 10:54:07;;;;;;;13.70;4.78;;;;;;;;;;4969756;28;20034;-77
2021/08/27 10:56:55;;;;;;;11.43;4.90;;;;;;;;;;4962805;28;20490;-76
2021/08/27 10:59:23;;;;;;;13.80;4.75;;;;;;;;;;4961877;28;20046;-75
2021/08/27 11:01:58;;;;;;;16.02;4.85;;;;;;;;;;4959842;28;20102;-76
2021/08/27 11:04:25;;;;;;;18.33;4.60;;;;;;;;;;4966815;28;20506;-75
2021/08/27 11:06:57;;;;;;;18.73;5.00;;;;;;;;;;4967279;28;20039;-75
2021/08/27 11:09:28;;;;;;;14.80;5.10;;;;;;;;;;4963434;28;20023;-75
2021/08/27 11:12:13;;;;;;;12.47;4.17;;;;;;;;;;4964373;28;20026;-75
2021/08/27 11:14:52;;;;;;;21.13;4.68;;;;;;;;;;4963274;28;20398;-76
2021/08/27 11:17:18;;;;;;;13.55;5.05;;;;;;;;;;4963445;28;20037;-74
2021/08/27 11:19:49;;;;;;;17.85;4.13;;;;;;;;;;4965499;28;20030;-76
2021/08/27 11:22:29;;;;;;;17.92;4.75;;;;;;;;;;4974359;28;20060;-75
2021/08/27 11:25:04;;;;;;;8.93;3.72;;;;;;;;;;4963458;28;20042;-75
2021/08/27 11:27:31;;;;;;;8.20;4.18;;;;;;;;;;4964759;28;20025;-74
2021/08/27 11:30:00;;;;;;;10.60;4.20;;;;;;;;;;4968710;28;20105;-74
2021/08/27 11:32:25;;;;;;;10.88;3.85;;;;;;;;;;4968546;28;20038;-75
2021/08/27 11:35:16;;;;;;;9.10;3.90;;;;;;;;;;4972370;28;20609;-75
2021/08/27 11:37:44;;;;;;;13.27;3.87;;;;;;;;;;4963778;28;20077;-77
2021/08/27 11:40:13;;;;;;;10.48;3.80;;;;;;;;;;4969831;28;20805;-77
2021/08/27 11:42:39;;;;;;;15.68;4.45;;;;;;;;;;4968111;28;20035;-77
2021/08/27 11:45:11;;;;;;;14.82;4.30;;;;;;;;;;4966999;28;20026;-76
2021/08/27 11:47:46;;;;;;;12.13;3.65;;;;;;;;;;4965093;28;20126;-75
2021/08/27 11:50:30;;;;;;;14.93;4.45;;;;;;;;;;4967940;28;20069;-78
2021/08/27 11:52:58;;;;;;;12.48;4.22;;;;;;;;;;4963576;28;20019;-79
2021/08/27 11:55:24;;;;;;;9.65;3.97;;;;;;;;;;4968581;28;20698;-75
2021/08/27 11:57:53;;;;;;;9.73;3.80;;;;;;;;;;4970944;28;20623;-75
2021/08/27 12:00:20;;;;;;;12.05;4.28;;;;;;;;;;4967772;28;20133;-77
2021/08/27 12:02:53;;;;;;;16.80;4.13;;;;;;;;;;4969550;28;20031;-77
2021/08/27 12:05:19;;;;;;;11.95;4.55;;;;;;;;;;4973111;28;20030;-77
2021/08/27 12:07:52;;;;;;;14.25;4.57;;;;;;;;;;4950122;28;20570;-77
2021/08/27 12:10:18;;;;;;;9.73;4.13;;;;;;;;;;4973268;28;20026;-78
2021/08/27 12:12:46;;;;;;;11.68;4.40;;;;;;;;;;4969152;28;20038;-74
2021/08/27 12:15:14;;;;;;;16.85;4.68;;;;;;;;;;4988706;28;20492;-74
2021/08/27 12:17:50;;;;;;;13.23;4.47;;;;;;;;;;4969382;28;20031;-74
2021/08/27 12:20:23;;;;;;;14.70;4.68;;;;;;;;;;4965709;28;20029;-77
2021/08/27 12:22:54;;;;;;;18.45;4.28;;;;;;;;;;4964566;28;20865;-75
2021/08/27 12:25:28;;;;;;;13.13;4.57;;;;;;;;;;4972121;28;20134;-77
2021/08/27 12:27:55;;;;;;;9.10;4.20;;;;;;;;;;4989891;28;20026;-76
2021/08/27 12:30:21;;;;;;;12.35;4.43;;;;;;;;;;4981668;28;20328;-75
2021/08/27 12:32:47;;;;;;;13.68;3.70;;;;;;;;;;4973682;28;20037;-76
2021/08/27 12:35:20;;;;;;;8.40;3.50;;;;;;;;;;4972115;28;20030;-77
2021/08/27 12:37:49;;;;;;;11.82;3.63;;;;;;;;;;4966364;28;20030;-76
2021/08/27 12:40:17;;;;;;;13.75;4.18;;;;;;;;;;4960995;28;20625;-77
2021/08/27 12:43:03;;;;;;;9.60;3.50;;;;;;;;;;4965777;28;20030;-77
2021/08/27 12:45:46;;;;;;;11.05;4.50;;;;;;;;;;4951282;28;20113;-76
2021/08/27 12:48:18;;;;;;;8.05;3.08;;;;;;;;;;4965932;28;20089;-75
2021/08/27 12:50:49;;;;;;;8.35;3.40;;;;;;;;;;4969800;28;20589;-77
2021/08/27 12:53:15;;;;;;;12.00;3.25;;;;;;;;;;4964594;28;20034;-77
2021/08/27 12:55:41;;;;;;;10.63;3.63;;;;;;;;;;4969152;28;20042;-76
2021/08/27 12:58:07;;;;;;;7.32;2.83;;;;;;;;;;4964368;28;20019;-76
2021/08/27 13:00:33;;;;;;;12.20;3.35;;;;;;;;;;4973775;28;20046;-76
2021/08/27 13:03:13;;;;;;;8.85;3.35;;;;;;;;;;4973739;28;20031;-78
2021/08/27 13:05:46;;;;;;;11.27;3.20;;;;;;;;;;4973951;28;20102;-76
2021/08/27 13:08:15;;;;;;;9.55;3.00;;;;;;;;;;4965900;28;20026;-76
2021/08/27 13:11:02;;;;;;;10.65;2.95;;;;;;;;;;4969278;28;20039;-77
2021/08/27 13:13:30;;;;;;;10.90;3.17;;;;;;;;;;4969853;28;20106;-76
2021/08/27 13:16:11;;;;;;;6.90;3.17;;;;;;;;;;4975076;28;20023;-76
2021/08/27 13:18:45;;;;;;;9.77;2.90;;;;;;;;;;4971824;28;20044;-76
2021/08/27 13:21:11;;;;;;;7.32;3.17;;;;;;;;;;4973511;28;20058;-76
2021/08/27 13:23:37;;;;;;;9.13;3.15;;;;;;;;;;4974242;28;20593;-76
2021/08/27 13:26:04;;;;;;;10.23;2.60;;;;;;;;;;4968569;28;20057;-76
2021/08/27 13:28:31;;;;;;;8.85;3.10;;;;;;;;;;4969285;28;20037;-75
2021/08/27 13:30:57;;;;;;;8.35;3.28;;;;;;;;;;4974449;28;20093;-76
2021/08/27 13:33:22;;;;;;;8.32;2.88;;;;;;;;;;4969136;28;20027;-76
2021/08/27 13:35:48;;;;;;;9.90;3.05;;;;;;;;;;4969734;28;20050;-76
2021/08/27 13:38:14;;;;;;;15.63;3.17;;;;;;;;;;4971100;28;20479;-75
2021/08/27 13:40:40;;;;;;;8.57;3.00;;;;;;;;;;4972250;28;20031;-76
2021/08/27 13:43:05;;;;;;;8.52;3.25;;;;;;;;;;4968500;28;20045;-76
2021/08/27 13:45:31;;;;;;;10.43;3.00;;;;;;;;;;4972119;28;20120;-77
2021/08/27 13:47:57;;;;;;;14.50;2.92;;;;;;;;;;4968093;28;20502;-77
2021/08/27 13:50:23;;;;;;;14.98;3.10;;;;;;;;;;4967812;28;20035;-75
2021/08/27 13:52:52;;;;;;;8.43;2.60;;;;;;;;;;4966328;28;20929;-75
2021/08/27 13:55:19;;;;;;;9.55;3.30;;;;;;;;;;4963729;28;20069;-78
2021/08/27 13:57:45;;;;;;;10.82;2.78;;;;;;;;;;4965673;28;20041;-75
2021/08/27 14:00:13;;;;;;;6.22;3.03;;;;;;;;;;4966984;28;20064;-77
2021/08/27 14:02:39;;;;;;;9.07;3.03;;;;;;;;;;4964441;28;20696;-77
2021/08/27 14:05:05;;;;;;;6.88;3.17;;;;;;;;;;4964984;28;20050;-77
2021/08/27 14:07:31;;;;;;;6.75;2.40;;;;;;;;;;4959110;28;20027;-77
2021/08/27 14:09:56;;;;;;;5.97;2.95;;;;;;;;;;4964384;28;20031;-76
2021/08/27 14:12:22;;;;;;;7.30;2.88;;;;;;;;;;4948654;28;20031;-77
2021/08/27 14:14:47;;;;;;;7.60;3.22;;;;;;;;;;4963756;28;20114;-77
2021/08/27 14:17:13;;;;;;;9.00;3.20;;;;;;;;;;4967324;28;20916;-77
2021/08/27 14:19:38;;;;;;;7.22;2.83;;;;;;;;;;4968844;28;20027;-76
2021/08/27 14:22:04;;;;;;;11.65;3.58;;;;;;;;;;4964755;28;20039;-76
2021/08/27 14:24:30;;;;;;;13.07;3.58;;;;;;;;;;4954361;28;20106;-75
2021/08/27 14:26:55;;;;;;;9.10;3.30;;;;;;;;;;4961286;28;20027;-79
2021/08/27 14:29:21;;;;;;;6.07;2.90;;;;;;;;;;4966012;28;20455;-76
2021/08/27 14:31:46;;;;;;;6.25;2.80;;;;;;;;;;4965160;28;20089;-76
2021/08/27 14:34:12;;;;;;;9.77;3.30;;;;;;;;;;4973136;28;20035;-76
2021/08/27 14:36:38;;;;;;;8.98;3.30;;;;;;;;;;4962026;28;20031;-78